createdAt,value
2017-11-14T00:00:54.795Z,12.30
2017-11-14T00:03:23.657Z,12.27
2017-11-14T00:05:51.904Z,12.87
2017-11-14T00:08:20.155Z,11.30
2017-11-14T00:10:48.431Z,11.60
2017-11-14T00:13:17.451Z,10.30
2017-11-14T00:15:45.701Z,11.47
2017-11-14T00:18:13.974Z,11.20
2017-11-14T00:20:42.991Z,10.17
2017-11-14T00:23:11.235Z,11.50
2017-11-14T00:25:39.644Z,10.27
2017-11-14T00:28:07.895Z,10.47
2017-11-14T00:30:36.152Z,10.50
2017-11-14T00:33:04.416Z,9.80
2017-11-14T00:35:32.654Z,8.93
2017-11-14T00:38:00.899Z,10.10
2017-11-14T00:40:29.931Z,9.90
2017-11-14T00:42:58.179Z,10.60
2017-11-14T00:45:26.627Z,9.70
2017-11-14T00:47:55.391Z,9.57
2017-11-14T00:50:23.640Z,10.77
2017-11-14T00:52:51.883Z,9.53
2017-11-14T00:55:20.150Z,10.30
2017-11-14T00:57:48.405Z,11.13
2017-11-14T01:00:16.879Z,9.40
2017-11-14T01:02:45.155Z,10.00
2017-11-14T01:05:13.406Z,8.50
2017-11-14T01:07:41.652Z,8.60
2017-11-14T01:10:10.231Z,8.90
2017-11-14T01:12:38.483Z,9.27
2017-11-14T01:15:06.716Z,9.40
2017-11-14T01:17:34.992Z,10.47
2017-11-14T01:20:03.235Z,9.40
2017-11-14T01:22:31.480Z,8.87
2017-11-14T01:24:59.750Z,9.57
2017-11-14T01:27:27.989Z,10.10
2017-11-14T01:29:56.999Z,10.00
2017-11-14T01:32:25.459Z,11.43
2017-11-14T01:34:53.712Z,11.40
2017-11-14T01:37:21.955Z,12.60
2017-11-14T01:39:50.223Z,11.90
2017-11-14T01:42:18.467Z,9.23
2017-11-14T01:44:47.480Z,10.90
2017-11-14T01:47:15.752Z,11.30
2017-11-14T01:49:44.012Z,10.20
2017-11-14T01:52:13.023Z,11.10
2017-11-14T01:54:41.462Z,10.00
2017-11-14T01:57:09.707Z,10.50
2017-11-14T01:59:37.955Z,10.00
2017-11-14T02:02:06.739Z,9.07
2017-11-14T02:04:34.987Z,10.73
2017-11-14T02:07:03.236Z,9.77
2017-11-14T02:09:31.506Z,10.70
2017-11-14T02:11:59.756Z,10.00
2017-11-14T02:14:27.996Z,9.43
2017-11-14T02:16:57.095Z,10.00
2017-11-14T02:19:25.335Z,9.37
2017-11-14T02:21:53.612Z,8.37
2017-11-14T02:24:21.866Z,8.57
2017-11-14T02:26:55.683Z,8.80
2017-11-14T02:29:23.959Z,9.57
2017-11-14T02:31:52.201Z,9.00
2017-11-14T02:34:21.214Z,8.10
2017-11-14T02:36:50.230Z,8.17
2017-11-14T02:39:18.523Z,9.30
2017-11-14T02:41:46.764Z,9.47
2017-11-14T02:44:15.040Z,8.60
2017-11-14T02:46:43.263Z,8.87
2017-11-14T02:49:11.513Z,8.77
2017-11-14T02:51:39.768Z,8.60
2017-11-14T02:54:08.036Z,8.37
2017-11-14T02:56:36.278Z,7.87
2017-11-14T02:59:04.715Z,8.47
2017-11-14T03:01:32.954Z,7.43
2017-11-14T03:04:01.419Z,7.03
2017-11-14T03:06:29.680Z,8.37
2017-11-14T03:08:57.919Z,7.60
2017-11-14T03:11:26.155Z,7.27
2017-11-14T03:13:54.432Z,7.50
2017-11-14T03:16:22.675Z,7.53
2017-11-14T03:18:50.910Z,6.97
2017-11-14T03:21:19.511Z,7.20
2017-11-14T03:23:47.743Z,7.03
2017-11-14T03:26:15.979Z,7.60
2017-11-14T03:28:44.244Z,6.60
2017-11-14T03:31:12.482Z,7.30
2017-11-14T03:33:41.488Z,7.57
2017-11-14T03:36:09.747Z,7.63
2017-11-14T03:38:38.762Z,6.20
2017-11-14T03:41:06.999Z,6.40
2017-11-14T03:43:35.848Z,7.20
2017-11-14T03:46:04.079Z,7.10
2017-11-14T03:48:33.091Z,9.00
2017-11-14T03:51:01.538Z,8.47
2017-11-14T03:53:29.771Z,7.67
2017-11-14T03:55:58.008Z,7.83
2017-11-14T03:58:27.471Z,7.53
2017-11-14T04:00:55.687Z,7.40
2017-11-14T04:03:24.684Z,6.80
2017-11-14T04:05:54.428Z,7.20
2017-11-14T04:08:22.681Z,7.07
2017-11-14T04:10:51.684Z,7.40
2017-11-14T04:13:19.947Z,7.30
2017-11-14T04:15:48.384Z,7.07
2017-11-14T04:18:16.621Z,6.50
2017-11-14T04:20:44.887Z,7.97
2017-11-14T04:23:13.896Z,8.33
2017-11-14T04:25:42.131Z,7.90
2017-11-14T04:28:10.675Z,8.60
2017-11-14T04:30:38.898Z,7.10
2017-11-14T04:33:07.136Z,8.50
2017-11-14T04:35:35.396Z,8.30
2017-11-14T04:38:03.640Z,7.57
2017-11-14T04:40:31.883Z,8.40
2017-11-14T04:43:00.147Z,7.57
2017-11-14T04:45:28.388Z,8.53
2017-11-14T04:47:56.637Z,8.23
2017-11-14T04:50:25.184Z,8.43
2017-11-14T04:52:53.419Z,9.10
2017-11-14T04:55:21.663Z,7.70
2017-11-14T04:57:49.919Z,8.93
2017-11-14T05:00:18.172Z,8.37
2017-11-14T05:02:46.410Z,8.40
2017-11-14T05:05:14.675Z,8.07
2017-11-14T05:07:43.464Z,7.80
2017-11-14T05:10:12.478Z,8.07
2017-11-14T05:12:41.182Z,9.03
2017-11-14T05:15:09.424Z,9.43
2017-11-14T05:17:37.668Z,8.87
2017-11-14T05:20:05.928Z,8.53
2017-11-14T05:22:34.169Z,8.40
2017-11-14T05:25:02.404Z,8.50
2017-11-14T05:27:30.667Z,7.77
2017-11-14T05:29:58.904Z,7.00
2017-11-14T05:32:27.148Z,8.20
2017-11-14T05:34:55.632Z,10.27
2017-11-14T05:37:24.639Z,7.70
2017-11-14T05:39:53.635Z,7.73
2017-11-14T05:42:21.896Z,7.30
2017-11-14T05:44:50.139Z,9.13
2017-11-14T05:47:18.383Z,8.67
2017-11-14T05:49:46.652Z,8.27
2017-11-14T05:52:14.908Z,7.33
2017-11-14T05:54:43.941Z,7.80
2017-11-14T05:57:12.663Z,8.90
2017-11-14T05:59:40.903Z,8.23
2017-11-14T06:02:09.239Z,7.37
2017-11-14T06:04:37.702Z,7.93
2017-11-14T06:07:05.951Z,7.80
2017-11-14T06:09:35.242Z,9.00
2017-11-14T06:12:03.515Z,8.67
2017-11-14T06:14:31.747Z,7.33
2017-11-14T06:16:59.993Z,7.70
2017-11-14T06:19:28.426Z,8.10
2017-11-14T06:21:56.664Z,7.37
2017-11-14T06:24:25.149Z,7.20
2017-11-14T06:26:53.395Z,7.80
2017-11-14T06:29:21.632Z,7.80
2017-11-14T06:31:49.871Z,9.07
2017-11-14T06:34:18.135Z,6.33
2017-11-14T06:36:46.376Z,5.67
2017-11-14T06:39:14.607Z,7.23
2017-11-14T06:41:43.144Z,6.33
2017-11-14T06:44:11.452Z,7.03
2017-11-14T06:46:39.682Z,9.47
2017-11-14T06:49:07.960Z,7.40
2017-11-14T06:51:36.200Z,7.80
2017-11-14T06:54:04.441Z,8.00
2017-11-14T06:56:32.715Z,6.20
2017-11-14T06:59:00.996Z,6.10
2017-11-14T07:01:29.328Z,6.63
2017-11-14T07:03:58.075Z,7.73
2017-11-14T07:06:26.324Z,7.20
2017-11-14T07:08:54.559Z,7.40
2017-11-14T07:11:23.063Z,8.10
2017-11-14T07:13:51.331Z,7.53
2017-11-14T07:16:19.571Z,8.30
2017-11-14T07:18:47.840Z,7.83
2017-11-14T07:21:16.080Z,7.40
2017-11-14T07:23:44.325Z,9.20
2017-11-14T07:26:17.270Z,7.73
2017-11-14T07:28:45.512Z,8.43
2017-11-14T07:31:13.751Z,8.00
2017-11-14T07:33:42.029Z,8.20
2017-11-14T07:36:10.255Z,8.30
2017-11-14T07:38:38.494Z,9.00
2017-11-14T07:41:06.764Z,8.83
2017-11-14T07:43:35.779Z,8.60
2017-11-14T07:46:04.023Z,8.17
2017-11-14T07:48:33.124Z,8.00
2017-11-14T07:51:02.136Z,8.60
2017-11-14T07:53:30.372Z,8.30
2017-11-14T07:55:58.641Z,8.63
2017-11-14T07:58:26.880Z,8.53
2017-11-14T08:00:55.130Z,9.47
2017-11-14T08:03:23.396Z,8.13
2017-11-14T08:05:51.637Z,9.27
2017-11-14T08:08:19.915Z,8.97
2017-11-14T08:10:48.788Z,9.00
2017-11-14T08:13:17.436Z,8.40
2017-11-14T08:15:46.459Z,8.63
2017-11-14T08:18:14.728Z,9.43
2017-11-14T08:20:42.975Z,10.10
2017-11-14T08:23:11.215Z,9.70
2017-11-14T08:25:39.635Z,9.30
2017-11-14T08:28:08.662Z,10.23
2017-11-14T08:30:36.936Z,9.03
2017-11-14T08:33:05.538Z,8.73
2017-11-14T08:35:33.816Z,9.40
2017-11-14T08:38:02.052Z,9.43
2017-11-14T08:40:30.323Z,9.70
2017-11-14T08:42:58.563Z,9.23
2017-11-14T08:45:26.808Z,10.27
2017-11-14T08:47:55.075Z,9.67
2017-11-14T08:50:23.327Z,10.13
2017-11-14T08:52:51.565Z,10.67
2017-11-14T08:55:19.878Z,9.90
2017-11-14T08:57:48.892Z,10.67
2017-11-14T09:00:17.130Z,9.50
2017-11-14T09:02:45.399Z,9.63
2017-11-14T09:05:13.642Z,9.90
2017-11-14T09:07:41.879Z,9.30
2017-11-14T09:10:10.915Z,10.03
2017-11-14T09:12:39.208Z,10.00
2017-11-14T09:15:07.656Z,8.93
2017-11-14T09:17:36.055Z,10.17
2017-11-14T09:20:04.313Z,10.80
2017-11-14T09:22:32.554Z,9.70
2017-11-14T09:25:00.901Z,10.83
2017-11-14T09:27:29.143Z,12.30
2017-11-14T09:29:57.382Z,11.00
2017-11-14T09:32:25.730Z,11.83
2017-11-14T09:34:53.976Z,11.00
2017-11-14T09:37:22.223Z,11.00
2017-11-14T09:39:50.855Z,11.17
2017-11-14T09:42:19.114Z,11.30
2017-11-14T09:44:47.373Z,12.13
2017-11-14T09:47:15.648Z,13.00
2017-11-14T09:49:43.911Z,12.70
2017-11-14T09:52:12.927Z,11.90
2017-11-14T09:54:41.191Z,11.17
2017-11-14T09:57:09.436Z,11.70
2017-11-14T09:59:37.679Z,13.03
2017-11-14T10:02:06.475Z,12.80
2017-11-14T10:04:34.740Z,11.43
2017-11-14T10:07:02.975Z,12.90
2017-11-14T10:09:31.250Z,11.80
2017-11-14T10:12:00.282Z,14.60
2017-11-14T10:14:28.535Z,13.67
2017-11-14T10:16:57.037Z,13.97
2017-11-14T10:19:25.284Z,12.40
2017-11-14T10:21:53.543Z,12.27
2017-11-14T10:24:22.211Z,12.40
2017-11-14T10:26:50.463Z,12.97
2017-11-14T10:29:18.711Z,12.37
2017-11-14T10:31:46.990Z,12.30
2017-11-14T10:34:15.256Z,13.63
2017-11-14T10:36:43.508Z,14.17
2017-11-14T10:39:11.777Z,13.80
2017-11-14T10:41:40.019Z,15.60
2017-11-14T10:44:08.265Z,15.63
2017-11-14T10:46:37.724Z,17.27
2017-11-14T10:49:05.962Z,15.50
2017-11-14T10:51:34.216Z,17.00
2017-11-14T10:54:02.492Z,17.57
2017-11-14T10:56:30.752Z,12.33
2017-11-14T10:58:59.004Z,12.57
2017-11-14T11:01:27.276Z,12.47
2017-11-14T11:03:55.519Z,12.73
2017-11-14T11:06:23.771Z,14.27
2017-11-14T11:08:53.116Z,13.27
2017-11-14T11:11:21.719Z,14.47
2017-11-14T11:13:49.965Z,13.43
2017-11-14T11:16:33.106Z,10.93
2017-11-14T11:19:01.855Z,13.50
2017-11-14T11:21:30.871Z,13.90
2017-11-14T11:23:59.693Z,14.20
2017-11-14T11:26:27.929Z,13.97
2017-11-14T11:28:56.280Z,13.20
2017-11-14T11:31:24.537Z,12.53
2017-11-14T11:33:52.796Z,12.07
2017-11-14T11:36:21.036Z,12.33
2017-11-14T11:38:49.311Z,12.10
2017-11-14T11:41:17.563Z,13.70
2017-11-14T11:43:46.577Z,16.23
2017-11-14T11:46:15.123Z,14.50
2017-11-14T11:48:43.366Z,13.77
2017-11-14T11:51:11.785Z,14.40
2017-11-14T11:53:40.053Z,11.90
2017-11-14T11:56:08.517Z,12.83
2017-11-14T11:58:36.763Z,12.30
2017-11-14T12:01:05.044Z,14.10
2017-11-14T12:03:33.283Z,16.43
2017-11-14T12:06:02.318Z,14.53
2017-11-14T12:08:31.115Z,14.23
2017-11-14T12:10:59.364Z,13.33
2017-11-14T12:13:27.632Z,15.93
2017-11-14T12:15:55.895Z,15.80
2017-11-14T12:18:24.147Z,13.07
2017-11-14T12:20:52.396Z,13.33
2017-11-14T12:23:20.716Z,12.80
2017-11-14T12:25:48.972Z,11.70
2017-11-14T12:28:17.223Z,12.77
2017-11-14T12:30:46.098Z,12.07
2017-11-14T12:33:14.430Z,10.60
2017-11-14T12:35:42.688Z,12.07
2017-11-14T12:38:10.962Z,13.33
2017-11-14T12:40:39.212Z,12.83
2017-11-14T12:43:07.468Z,12.83
2017-11-14T12:45:35.747Z,12.43
2017-11-14T12:48:04.003Z,11.50
2017-11-14T12:50:32.259Z,12.23
2017-11-14T12:53:01.227Z,11.73
2017-11-14T12:55:29.483Z,12.03
2017-11-14T12:57:57.743Z,10.80
2017-11-14T13:00:26.019Z,10.23
2017-11-14T13:02:55.197Z,10.87
2017-11-14T13:05:23.438Z,9.77
2017-11-14T13:07:51.707Z,11.93
2017-11-14T13:10:19.963Z,10.30
2017-11-14T13:12:48.217Z,9.20
2017-11-14T13:15:17.877Z,12.27
2017-11-14T13:17:46.122Z,12.57
2017-11-14T13:20:14.377Z,12.13
2017-11-14T13:22:43.431Z,11.20
2017-11-14T13:25:11.711Z,11.70
2017-11-14T13:27:39.983Z,12.83
2017-11-14T13:30:08.283Z,13.30
2017-11-14T13:32:36.531Z,11.90
2017-11-14T13:35:04.802Z,11.47
2017-11-14T13:37:33.164Z,10.97
2017-11-14T13:40:01.652Z,9.77
2017-11-14T13:42:29.900Z,9.27
2017-11-14T13:44:58.733Z,10.80
2017-11-14T13:47:26.984Z,11.00
2017-11-14T13:49:55.235Z,10.53
2017-11-14T13:52:23.538Z,10.97
2017-11-14T13:54:51.784Z,12.40
2017-11-14T13:57:20.248Z,11.07
2017-11-14T13:59:48.592Z,11.87
2017-11-14T14:02:16.855Z,11.50
2017-11-14T14:04:45.103Z,10.00
2017-11-14T14:07:15.694Z,12.70
2017-11-14T14:09:43.927Z,12.73
2017-11-14T14:12:12.196Z,11.87
2017-11-14T14:14:40.479Z,10.17
2017-11-14T14:17:08.732Z,12.50
2017-11-14T14:19:36.989Z,10.80
2017-11-14T14:22:05.319Z,11.80
2017-11-14T14:24:33.591Z,11.07
2017-11-14T14:27:01.842Z,12.03
2017-11-14T14:29:30.117Z,8.80
2017-11-14T14:31:59.144Z,11.97
2017-11-14T14:34:27.399Z,10.60
2017-11-14T14:36:56.448Z,11.00
2017-11-14T14:39:24.686Z,10.87
2017-11-14T14:41:52.944Z,11.60
2017-11-14T14:44:22.302Z,11.80
2017-11-14T14:46:50.558Z,12.33
2017-11-14T14:49:18.803Z,11.60
2017-11-14T14:51:47.087Z,13.07
2017-11-14T14:54:15.435Z,11.90
2017-11-14T14:56:43.681Z,12.83
2017-11-14T14:59:11.949Z,13.83
2017-11-14T15:01:40.203Z,12.50
2017-11-14T15:04:09.557Z,13.40
2017-11-14T15:06:37.900Z,11.87
2017-11-14T15:09:06.163Z,12.10
2017-11-14T15:11:34.403Z,11.53
2017-11-14T15:14:03.571Z,11.70
2017-11-14T15:16:31.806Z,12.87
2017-11-14T15:19:00.059Z,11.73
2017-11-14T15:21:28.345Z,12.90
2017-11-14T15:23:56.638Z,12.53
2017-11-14T15:26:25.643Z,11.30
2017-11-14T15:28:54.949Z,9.80
2017-11-14T15:31:23.188Z,9.10
2017-11-14T15:33:51.472Z,9.90
2017-11-14T15:36:19.749Z,9.67
2017-11-14T15:38:48.767Z,12.20
2017-11-14T15:41:17.007Z,11.30
2017-11-14T15:43:45.323Z,11.97
2017-11-14T15:46:13.596Z,11.43
2017-11-14T15:48:41.883Z,11.63
2017-11-14T15:51:10.647Z,11.87
2017-11-14T15:53:39.124Z,12.57
2017-11-14T15:56:07.358Z,11.20
2017-11-14T15:58:35.624Z,14.87
2017-11-14T16:01:03.866Z,12.20
2017-11-14T16:03:32.259Z,11.27
2017-11-14T16:06:00.528Z,14.07
2017-11-14T16:08:28.952Z,13.70
2017-11-14T16:10:57.194Z,13.70
2017-11-14T16:13:27.022Z,13.57
2017-11-14T16:15:55.319Z,11.80
2017-11-14T16:18:23.584Z,10.93
2017-11-14T16:20:51.847Z,12.70
2017-11-14T16:23:20.095Z,13.80
2017-11-14T16:25:48.351Z,14.43
2017-11-14T16:28:17.388Z,12.70
2017-11-14T16:30:45.645Z,12.57
2017-11-14T16:33:13.887Z,11.40
2017-11-14T16:35:42.303Z,12.50
2017-11-14T16:38:10.557Z,12.93
2017-11-14T16:40:38.799Z,14.03
2017-11-14T16:43:07.087Z,13.17
2017-11-14T16:45:35.339Z,14.30
2017-11-14T16:48:03.584Z,14.57
2017-11-14T16:50:31.855Z,17.10
2017-11-14T16:53:00.112Z,16.17
2017-11-14T16:55:29.131Z,15.23
2017-11-14T16:57:57.840Z,15.67
2017-11-14T17:00:26.089Z,15.17
2017-11-14T17:02:54.335Z,15.30
2017-11-14T17:05:23.367Z,14.90
2017-11-14T17:07:51.621Z,14.80
2017-11-14T17:10:20.668Z,13.73
2017-11-14T17:12:48.920Z,13.73
2017-11-14T17:15:17.163Z,14.10
2017-11-14T17:17:45.411Z,15.63
2017-11-14T17:20:14.290Z,16.27
2017-11-14T17:22:42.537Z,15.27
2017-11-14T17:25:10.803Z,15.07
2017-11-14T17:27:39.263Z,17.30
2017-11-14T17:30:08.284Z,16.10
2017-11-14T17:32:36.529Z,16.80
2017-11-14T17:35:05.031Z,16.50
2017-11-14T17:37:33.838Z,17.20
2017-11-14T17:40:02.972Z,16.27
2017-11-14T17:42:31.472Z,16.80
2017-11-14T17:44:59.714Z,16.50
2017-11-14T17:47:27.979Z,18.17
2017-11-14T17:49:56.299Z,19.13
2017-11-14T17:52:24.535Z,19.70
2017-11-14T17:54:52.782Z,18.60
2017-11-14T17:57:21.048Z,18.90
2017-11-14T17:59:50.061Z,20.40
2017-11-14T18:02:18.302Z,18.00
2017-11-14T18:04:46.830Z,19.30
2017-11-14T18:07:15.076Z,18.10
2017-11-14T18:09:43.322Z,20.00
2017-11-14T18:12:11.595Z,19.77
2017-11-14T18:14:39.844Z,19.07
2017-11-14T18:17:08.094Z,18.77
2017-11-14T18:19:36.372Z,20.50
2017-11-14T18:22:04.648Z,20.87
2017-11-14T18:24:32.902Z,21.07
2017-11-14T18:27:02.252Z,19.73
2017-11-14T18:29:30.618Z,20.97
2017-11-14T18:31:58.871Z,20.23
2017-11-14T18:34:28.325Z,20.80
2017-11-14T18:36:56.563Z,21.63
2017-11-14T18:39:24.848Z,22.33
2017-11-14T18:41:53.131Z,22.00
2017-11-14T18:44:21.375Z,21.13
2017-11-14T18:46:49.623Z,20.80
2017-11-14T18:49:18.035Z,21.03
2017-11-14T18:51:47.049Z,18.50
2017-11-14T18:54:15.291Z,20.40
2017-11-14T18:56:44.326Z,22.17
2017-11-14T18:59:12.572Z,23.87
2017-11-14T19:01:40.822Z,21.47
2017-11-14T19:04:10.698Z,22.63
2017-11-14T19:06:38.942Z,21.80
2017-11-14T19:09:07.188Z,27.83
2017-11-14T19:11:35.744Z,24.20
2017-11-14T19:14:03.988Z,23.40
2017-11-14T19:16:32.247Z,22.80
2017-11-14T19:19:01.288Z,22.00
2017-11-14T19:21:31.739Z,23.40
2017-11-14T19:24:00.067Z,22.30
2017-11-14T19:26:28.331Z,21.50
2017-11-14T19:28:56.592Z,22.50
2017-11-14T19:31:25.012Z,20.60
2017-11-14T19:33:53.658Z,23.33
2017-11-14T19:36:22.669Z,23.17
2017-11-14T19:38:50.911Z,24.40
2017-11-14T19:41:19.183Z,22.67
2017-11-14T19:43:47.430Z,23.07
2017-11-14T19:46:15.675Z,22.20
2017-11-14T19:48:43.956Z,22.20
2017-11-14T19:51:12.970Z,22.20
2017-11-14T19:53:41.216Z,21.47
2017-11-14T19:56:09.742Z,26.47
2017-11-14T19:58:37.983Z,24.30
2017-11-14T20:01:06.232Z,23.73
2017-11-14T20:03:34.554Z,21.87
2017-11-14T20:06:02.782Z,24.40
2017-11-14T20:08:31.034Z,23.90
2017-11-14T20:10:59.295Z,22.90
2017-11-14T20:13:27.551Z,24.10
2017-11-14T20:15:55.803Z,23.60
2017-11-14T20:18:25.151Z,22.30
2017-11-14T20:20:53.398Z,22.60
2017-11-14T20:23:21.695Z,23.60
2017-11-14T20:25:49.951Z,23.50
2017-11-14T20:28:19.925Z,24.30
2017-11-14T20:30:48.163Z,23.03
2017-11-14T20:33:17.088Z,23.50
2017-11-14T20:35:46.085Z,23.37
2017-11-14T20:38:14.340Z,23.40
2017-11-14T20:40:42.785Z,22.03
2017-11-14T20:43:11.023Z,22.33
2017-11-14T20:45:39.270Z,23.13
2017-11-14T20:48:07.616Z,23.53
2017-11-14T20:50:35.868Z,24.63
2017-11-14T20:53:04.286Z,22.77
2017-11-14T20:55:32.541Z,23.17
2017-11-14T20:58:00.800Z,22.90
2017-11-14T21:00:29.037Z,22.27
2017-11-14T21:02:57.494Z,23.03
2017-11-14T21:05:25.734Z,21.90
2017-11-14T21:07:53.983Z,21.77
2017-11-14T21:10:22.255Z,22.10
2017-11-14T21:12:50.494Z,21.57
2017-11-14T21:15:18.744Z,22.07
2017-11-14T21:17:47.776Z,21.30
2017-11-14T21:20:16.019Z,20.73
2017-11-14T21:22:44.271Z,21.47
2017-11-14T21:25:12.711Z,23.43
2017-11-14T21:27:40.957Z,22.70
2017-11-14T21:30:09.976Z,22.53
2017-11-14T21:32:38.320Z,23.40
2017-11-14T21:35:07.176Z,22.67
2017-11-14T21:37:35.418Z,21.17
2017-11-14T21:40:03.686Z,22.27
2017-11-14T21:42:31.946Z,22.60
2017-11-14T21:45:00.203Z,21.80
2017-11-14T21:47:28.960Z,22.03
2017-11-14T21:49:57.200Z,21.57
2017-11-14T21:52:25.450Z,22.07
2017-11-14T21:54:53.711Z,22.37
2017-11-14T21:57:21.959Z,21.80
2017-11-14T21:59:50.214Z,23.97
2017-11-14T22:02:18.496Z,22.87
2017-11-14T22:04:46.730Z,21.07
2017-11-14T22:07:15.747Z,23.03
2017-11-14T22:09:44.889Z,22.73
2017-11-14T22:12:13.132Z,23.77
2017-11-14T22:14:41.394Z,23.40
2017-11-14T22:17:10.451Z,22.30
2017-11-14T22:19:38.713Z,23.87
2017-11-14T22:22:06.962Z,23.77
2017-11-14T22:24:35.227Z,23.20
2017-11-14T22:27:03.484Z,22.37
2017-11-14T22:29:31.731Z,22.07
2017-11-14T22:32:00.972Z,23.40
2017-11-14T22:34:29.235Z,22.63
2017-11-14T22:36:57.510Z,22.87
2017-11-14T22:39:25.787Z,23.50
2017-11-14T22:41:54.811Z,24.07
2017-11-14T22:44:23.068Z,23.73
2017-11-14T22:46:51.331Z,23.10
2017-11-14T22:49:20.339Z,22.93
2017-11-14T22:51:48.591Z,24.73
2017-11-14T22:54:16.915Z,24.67
2017-11-14T22:56:45.169Z,22.83
2017-11-14T22:59:13.450Z,24.37
2017-11-14T23:01:41.719Z,25.83
2017-11-14T23:04:09.963Z,25.57
2017-11-14T23:06:38.212Z,23.57
2017-11-14T23:09:06.479Z,23.80
2017-11-14T23:11:34.728Z,23.77
2017-11-14T23:14:03.788Z,25.80
2017-11-14T23:16:32.447Z,25.60
2017-11-14T23:19:00.756Z,25.63
2017-11-14T23:21:29.001Z,24.83
2017-11-14T23:23:57.268Z,24.70
2017-11-14T23:26:25.511Z,25.47
2017-11-14T23:28:53.754Z,23.70
2017-11-14T23:31:22.030Z,26.83
2017-11-14T23:33:50.279Z,24.00
2017-11-14T23:36:18.543Z,25.77
2017-11-14T23:38:47.675Z,23.53
2017-11-14T23:41:15.906Z,24.50
2017-11-14T23:43:44.159Z,23.13
2017-11-14T23:46:12.436Z,24.40
2017-11-14T23:48:40.688Z,24.37
2017-11-14T23:51:08.940Z,23.93
2017-11-14T23:53:37.832Z,23.07
2017-11-14T23:56:06.132Z,26.20
2017-11-14T23:58:34.379Z,23.53
